Time;durP1;ratioP1;P1;durP2;ratioP2;P2;SDS_P1;SDS_P2;PMS_P1;PMS_P2;Temp;Humidity;BMP_temperature;BMP_pressure;BME280_temperature;BME280_humidity;BME280_pressure;Samples;Min_cycle;Max_cycle;Signal;HPM_P1;HPM_P2
2024/02/12 00:02:18;;;;;;;37.13;15.65;;;;;;;3.96;100.00;99859.47;5052354;28;20454;-78
2024/02/12 00:04:46;;;;;;;38.58;15.93;;;;;;;4.07;100.00;99869.97;5052275;28;20036;-78
2024/02/12 00:07:12;;;;;;;34.78;16.80;;;;;;;4.22;100.00;99871.41;5051650;28;20036;-78
2024/02/12 00:09:37;;;;;;;41.20;17.48;;;;;;;4.34;100.00;99876.63;5052230;28;20080;-78
2024/02/12 00:12:03;;;;;;;37.83;17.10;;;;;;;4.41;100.00;99878.66;5051865;28;20435;-78
2024/02/12 00:14:29;;;;;;;45.90;17.58;;;;;;;4.49;100.00;99883.28;5050372;28;20331;-78
2024/02/12 00:16:54;;;;;;;40.22;17.30;;;;;;;4.56;100.00;99889.75;5050723;28;20458;-78
2024/02/12 00:19:21;;;;;;;57.38;17.77;;;;;;;4.68;100.00;99895.84;5051670;28;20467;-78
2024/02/12 00:21:48;;;;;;;43.65;17.88;;;;;;;4.75;100.00;99894.38;5049801;28;20040;-78
2024/02/12 00:24:15;;;;;;;36.42;17.00;;;;;;;4.83;100.00;99901.66;5051443;28;20036;-78
2024/02/12 00:26:41;;;;;;;46.40;17.52;;;;;;;4.88;100.00;99894.22;5051532;28;20056;-78
2024/02/12 00:29:08;;;;;;;45.72;16.92;;;;;;;5.00;100.00;99896.81;5051839;28;20041;-78
2024/02/12 00:31:34;;;;;;;38.60;17.23;;;;;;;5.06;100.00;99893.66;5050251;28;20323;-78
2024/02/12 00:34:01;;;;;;;44.55;17.08;;;;;;;5.09;100.00;99903.94;5050557;28;20045;-78
2024/02/12 00:36:26;;;;;;;35.83;16.27;;;;;;;5.07;100.00;99896.16;5051635;28;20108;-78
2024/02/12 00:38:52;;;;;;;37.45;17.25;;;;;;;5.07;100.00;99908.53;5051656;28;20072;-78
2024/02/12 00:41:21;;;;;;;37.05;16.05;;;;;;;5.08;100.00;99899.66;5051657;28;20036;-83
2024/02/12 00:43:47;;;;;;;36.60;16.45;;;;;;;5.11;100.00;99905.50;5051279;28;20029;-78
2024/02/12 00:46:15;;;;;;;35.10;15.68;;;;;;;5.16;100.00;99906.94;5051792;28;20033;-79
2024/02/12 00:48:42;;;;;;;41.85;16.63;;;;;;;5.19;100.00;99917.22;5051393;28;20059;-78
2024/02/12 00:51:07;;;;;;;39.75;17.15;;;;;;;5.26;100.00;99921.84;5051400;28;20069;-77
2024/02/12 00:53:33;;;;;;;38.88;16.42;;;;;;;5.29;100.00;99921.59;5051666;28;20053;-78
2024/02/12 00:55:59;;;;;;;45.95;16.90;;;;;;;5.29;100.00;99918.13;5051773;28;20072;-77
2024/02/12 00:58:24;;;;;;;38.88;16.60;;;;;;;5.34;100.00;99926.50;5051453;28;20124;-78
2024/02/12 01:00:50;;;;;;;37.40;16.02;;;;;;;5.38;100.00;99932.38;5051658;28;20359;-78
2024/02/12 01:03:16;;;;;;;41.13;16.75;;;;;;;5.34;100.00;99930.94;5051420;28;20045;-78
2024/02/12 01:05:41;;;;;;;35.58;14.65;;;;;;;5.32;100.00;99932.88;5051382;28;20029;-77
2024/02/12 01:08:07;;;;;;;37.20;15.82;;;;;;;5.30;100.00;99931.19;5051539;28;20489;-78
2024/02/12 01:10:33;;;;;;;41.17;17.10;;;;;;;5.28;100.00;99933.13;5051987;28;20431;-78
2024/02/12 01:12:58;;;;;;;35.60;14.15;;;;;;;5.30;100.00;99938.28;5051119;28;20037;-77
2024/02/12 01:15:24;;;;;;;36.08;15.13;;;;;;;5.34;100.00;99933.59;5051398;28;20112;-79
2024/02/12 01:17:50;;;;;;;32.95;15.52;;;;;;;5.36;100.00;99937.78;5052017;28;20115;-78
2024/02/12 01:20:16;;;;;;;38.30;15.50;;;;;;;5.40;100.00;99938.34;5051443;28;20061;-77
2024/02/12 01:22:42;;;;;;;32.65;15.90;;;;;;;5.42;100.00;99936.41;5051596;28;20029;-77
2024/02/12 01:25:07;;;;;;;30.65;14.80;;;;;;;5.47;100.00;99942.16;5051228;28;20052;-77
2024/02/12 01:27:33;;;;;;;33.05;15.25;;;;;;;5.48;100.00;99938.56;5051303;28;20055;-78
2024/02/12 01:29:58;;;;;;;36.13;14.35;;;;;;;5.47;100.00;99937.69;5051040;28;20128;-77
2024/02/12 01:32:25;;;;;;;34.28;15.13;;;;;;;5.50;100.00;99936.63;5051021;28;20090;-86
2024/02/12 01:34:51;;;;;;;29.55;14.98;;;;;;;5.53;100.00;99936.34;5053297;28;20344;-77
2024/02/12 01:37:16;;;;;;;33.92;14.35;;;;;;;5.55;100.00;99938.88;5054443;28;20044;-77
2024/02/12 01:39:41;;;;;;;35.22;14.45;;;;;;;5.52;100.00;99942.59;5053300;28;20108;-77
2024/02/12 01:42:14;;;;;;;31.88;14.95;;;;;;;5.51;100.00;99930.38;5054662;28;20032;-77
2024/02/12 01:45:11;;;;;;;30.88;14.15;;;;;;;5.49;100.00;99937.56;5054561;28;20491;-77
2024/02/12 01:47:37;;;;;;;29.77;13.88;;;;;;;5.51;100.00;99937.44;5054540;28;20505;-77
2024/02/12 01:50:03;;;;;;;26.17;13.20;;;;;;;5.49;100.00;99934.94;5054535;28;20037;-77
2024/02/12 01:52:30;;;;;;;36.88;14.00;;;;;;;5.50;100.00;99938.44;5053080;28;20081;-78
2024/02/12 01:55:00;;;;;;;28.83;13.10;;;;;;;5.51;100.00;99942.72;5054356;28;20033;-77
2024/02/12 01:57:26;;;;;;;33.22;13.18;;;;;;;5.50;100.00;99933.97;5054250;28;20029;-77
2024/02/12 01:59:51;;;;;;;32.78;13.18;;;;;;;5.47;100.00;99939.50;5054163;28;20036;-78
2024/02/12 02:02:17;;;;;;;26.10;12.90;;;;;;;5.44;100.00;99939.78;5054508;28;20163;-77
2024/02/12 02:04:42;;;;;;;29.13;11.65;;;;;;;5.41;100.00;99930.31;5054193;28;20041;-77
2024/02/12 02:07:21;;;;;;;27.83;12.65;;;;;;;5.37;100.00;99928.88;5052808;28;20040;-77
2024/02/12 02:09:47;;;;;;;30.00;13.13;;;;;;;5.33;100.00;99937.19;5054311;28;20033;-78
2024/02/12 02:12:14;;;;;;;31.30;12.18;;;;;;;5.32;100.00;99938.16;5053848;28;20040;-77
2024/02/12 02:14:42;;;;;;;29.33;12.75;;;;;;;5.34;100.00;99952.03;5054047;28;20036;-77
2024/02/12 02:17:08;;;;;;;22.63;11.95;;;;;;;5.36;100.00;99965.94;5053925;28;20037;-77
2024/02/12 02:19:34;;;;;;;26.10;12.50;;;;;;;5.39;100.00;99963.91;5053848;28;20029;-77
2024/02/12 02:21:59;;;;;;;28.63;12.55;;;;;;;5.41;100.00;99963.78;5053814;28;20037;-77
2024/02/12 02:24:25;;;;;;;29.27;12.18;;;;;;;5.45;100.00;99963.38;5035810;28;20386;-77
2024/02/12 02:26:52;;;;;;;29.77;12.95;;;;;;;5.48;100.00;99964.94;5053458;28;20438;-77
2024/02/12 02:29:18;;;;;;;22.77;12.25;;;;;;;5.49;100.00;99966.59;5052443;28;20037;-77
2024/02/12 02:31:43;;;;;;;28.73;12.93;;;;;;;5.56;100.00;99969.56;5053788;28;20127;-77
2024/02/12 02:34:09;;;;;;;29.35;13.13;;;;;;;5.58;100.00;99976.41;5053750;28;20398;-77
2024/02/12 02:36:35;;;;;;;22.25;12.65;;;;;;;5.57;100.00;99976.50;5053752;28;20037;-77
2024/02/12 02:39:03;;;;;;;26.48;12.23;;;;;;;5.57;100.00;99980.00;5053826;28;20103;-77
2024/02/12 02:41:28;;;;;;;25.95;13.00;;;;;;;5.55;100.00;99983.72;5053380;28;20382;-77
2024/02/12 02:43:54;;;;;;;30.80;12.93;;;;;;;5.53;100.00;99986.50;5053497;28;20043;-78
2024/02/12 02:46:26;;;;;;;28.00;13.25;;;;;;;5.48;100.00;99981.59;5052498;28;20275;-77
2024/02/12 02:48:52;;;;;;;30.25;12.85;;;;;;;5.46;100.00;99980.91;5053487;28;20493;-77
2024/02/12 02:51:27;;;;;;;27.92;12.48;;;;;;;5.44;100.00;99984.63;5053383;28;20029;-77
2024/02/12 02:53:54;;;;;;;26.90;13.02;;;;;;;5.41;100.00;99985.69;5053923;28;20025;-77
2024/02/12 02:56:20;;;;;;;32.20;11.90;;;;;;;5.41;100.00;99976.97;5053679;28;20045;-77
2024/02/12 02:58:47;;;;;;;28.23;12.52;;;;;;;5.40;100.00;99988.47;5053217;28;20050;-78
2024/02/12 03:01:13;;;;;;;25.23;11.88;;;;;;;5.38;100.00;99983.31;5053335;28;20040;-78
2024/02/12 03:03:38;;;;;;;25.65;12.82;;;;;;;5.39;100.00;99984.16;5051906;28;20399;-78
2024/02/12 03:06:05;;;;;;;31.25;12.80;;;;;;;5.41;100.00;99990.16;5053724;28;20024;-78
2024/02/12 03:08:34;;;;;;;25.40;12.27;;;;;;;5.40;100.00;99991.94;5053439;28;20124;-79
2024/02/12 03:11:01;;;;;;;27.73;12.27;;;;;;;5.43;100.00;99991.72;5053106;28;20035;-77
2024/02/12 03:13:29;;;;;;;28.35;11.65;;;;;;;5.49;100.00;99995.63;5053105;28;20036;-77
2024/02/12 03:15:55;;;;;;;21.98;11.38;;;;;;;5.52;100.00;100003.28;5052920;28;20044;-78
2024/02/12 03:18:22;;;;;;;29.08;11.52;;;;;;;5.53;100.00;99991.78;5053117;28;20380;-77
2024/02/12 03:20:49;;;;;;;20.90;11.57;;;;;;;5.53;100.00;99989.13;5034822;28;20051;-78
2024/02/12 03:23:14;;;;;;;23.38;11.43;;;;;;;5.50;100.00;99983.28;5052849;28;20029;-77
2024/02/12 03:25:40;;;;;;;26.23;12.20;;;;;;;5.40;100.00;99985.84;5053149;28;20140;-79
2024/02/12 03:28:05;;;;;;;26.02;11.93;;;;;;;5.30;100.00;99989.22;5051161;28;20056;-78
2024/02/12 03:30:31;;;;;;;29.52;13.43;;;;;;;5.18;100.00;100000.78;5052763;28;20029;-78
2024/02/12 03:32:59;;;;;;;29.15;13.48;;;;;;;5.08;100.00;99987.50;5053047;28;20047;-78
2024/02/12 03:35:25;;;;;;;27.27;13.32;;;;;;;5.08;100.00;100005.13;5051190;28;20049;-78
2024/02/12 03:37:50;;;;;;;28.40;14.85;;;;;;;5.11;100.00;100012.78;5051552;28;20052;-78
2024/02/12 03:40:17;;;;;;;31.85;15.18;;;;;;;5.15;100.00;100008.97;5052445;28;20328;-78
2024/02/12 03:42:43;;;;;;;34.90;15.68;;;;;;;5.21;100.00;100012.88;5052692;28;20120;-79
2024/02/12 03:45:11;;;;;;;30.77;15.77;;;;;;;5.26;100.00;100016.81;5051030;28;20520;-78
2024/02/12 03:47:39;;;;;;;33.63;15.23;;;;;;;5.28;100.00;100014.91;5052513;28;20118;-78
2024/02/12 04:01:08;;;;;;;30.20;14.75;;;;;;;5.35;100.00;100025.78;5052139;28;20124;-78
2024/02/12 04:03:33;;;;;;;31.52;15.05;;;;;;;5.37;100.00;100025.66;5052013;28;20195;-77
2024/02/12 04:06:00;;;;;;;30.67;14.13;;;;;;;5.34;100.00;100033.81;5051874;28;20116;-78
2024/02/12 04:08:25;;;;;;;30.08;15.18;;;;;;;5.34;100.00;100036.47;5051976;28;20086;-78
2024/02/12 04:10:51;;;;;;;38.33;15.70;;;;;;;5.37;100.00;100036.22;5052290;28;20033;-78
2024/02/12 04:13:16;;;;;;;27.05;14.65;;;;;;;5.41;100.00;100037.63;5050690;28;20399;-78
2024/02/12 04:15:41;;;;;;;41.63;14.70;;;;;;;5.41;100.00;100040.28;5052236;28;20091;-78
2024/02/12 04:18:08;;;;;;;28.98;13.85;;;;;;;5.39;100.00;100045.69;5052238;28;20355;-78
2024/02/12 04:20:35;;;;;;;26.38;13.73;;;;;;;5.33;100.00;100043.53;5051897;28;20033;-78
2024/02/12 04:23:01;;;;;;;32.72;14.40;;;;;;;5.27;100.00;100046.69;5051510;28;20425;-78
2024/02/12 04:25:27;;;;;;;31.10;14.02;;;;;;;5.23;100.00;100046.09;5051582;28;20113;-78
2024/02/12 04:27:54;;;;;;;33.70;13.30;;;;;;;5.21;100.00;100058.56;5051472;28;20052;-78
2024/02/12 04:30:25;;;;;;;27.10;12.82;;;;;;;5.16;100.00;100058.09;5050501;28;20178;-78
2024/02/12 04:32:51;;;;;;;38.25;14.65;;;;;;;5.06;100.00;100055.34;5051894;28;20043;-79
2024/02/12 04:35:16;;;;;;;31.92;14.27;;;;;;;4.98;100.00;100059.56;5052383;28;20033;-78
2024/02/12 04:37:45;;;;;;;30.77;13.10;;;;;;;4.94;100.00;100066.84;5051761;28;20036;-78
2024/02/12 04:40:12;;;;;;;33.35;11.43;;;;;;;4.86;100.00;100064.84;5050904;28;20108;-78
2024/02/12 04:42:37;;;;;;;24.48;9.80;;;;;;;4.92;100.00;100068.78;5050378;28;20196;-78
2024/02/12 04:45:03;;;;;;;23.80;9.05;;;;;;;4.94;100.00;100075.63;5052164;28;20069;-79
2024/02/12 04:47:28;;;;;;;19.75;9.75;;;;;;;4.99;100.00;100087.63;5051969;28;20085;-78
2024/02/12 04:49:54;;;;;;;20.17;8.35;;;;;;;5.09;100.00;100075.34;5050441;28;20037;-78
2024/02/12 04:52:20;;;;;;;22.58;9.50;;;;;;;5.11;100.00;100081.34;5052235;28;20425;-79
2024/02/12 04:54:45;;;;;;;20.75;8.40;;;;;;;5.20;100.00;100090.34;5051976;28;20532;-78
2024/02/12 04:57:11;;;;;;;19.58;7.63;;;;;;;5.26;100.00;100093.31;5051694;28;20075;-78
2024/02/12 04:59:37;;;;;;;21.02;9.00;;;;;;;5.32;100.00;100089.34;5051755;28;20447;-78
2024/02/12 05:02:04;;;;;;;25.92;8.38;;;;;;;5.32;100.00;100096.44;5051567;28;20087;-78
2024/02/12 05:04:30;;;;;;;13.52;7.68;;;;;;;5.35;100.00;100097.00;5051625;28;20029;-78
2024/02/12 05:06:55;;;;;;;21.35;7.88;;;;;;;5.39;100.00;100100.22;5051507;28;20036;-79
2024/02/12 05:09:20;;;;;;;16.30;7.00;;;;;;;5.41;100.00;100101.78;5053909;28;20037;-78
2024/02/12 05:11:46;;;;;;;17.95;7.57;;;;;;;5.41;100.00;100104.44;5054317;28;20086;-78
2024/02/12 05:14:11;;;;;;;21.02;7.82;;;;;;;5.42;100.00;100105.25;5055216;28;20498;-78
2024/02/12 05:16:37;;;;;;;29.15;7.55;;;;;;;5.40;100.00;100104.56;5054975;28;20041;-76
2024/02/12 05:24:35;;;;;;;19.15;6.72;;;;;;;5.22;100.00;100094.50;5055469;28;20102;-78
2024/02/12 05:27:01;;;;;;;14.90;6.32;;;;;;;5.26;100.00;100114.41;5055064;28;20044;-78
2024/02/12 05:29:27;;;;;;;17.95;6.75;;;;;;;5.25;100.00;100114.53;5053800;28;20032;-78
2024/02/12 05:31:54;;;;;;;23.42;6.57;;;;;;;5.25;100.00;100114.53;5055033;28;20551;-77
2024/02/12 05:34:21;;;;;;;14.60;6.05;;;;;;;5.25;100.00;100104.81;5054935;28;20044;-79
2024/02/12 05:36:55;;;;;;;12.88;6.53;;;;;;;5.26;100.00;100111.78;5054601;28;20112;-77
2024/02/12 05:39:22;;;;;;;13.35;5.68;;;;;;;5.27;100.00;100105.53;5054963;28;20127;-78
2024/02/12 05:41:48;;;;;;;11.93;5.75;;;;;;;5.30;100.00;100120.31;5054916;28;20450;-78
2024/02/12 05:44:14;;;;;;;17.42;5.75;;;;;;;5.26;100.00;100118.84;5054397;28;20415;-78
2024/02/12 05:46:39;;;;;;;11.77;5.97;;;;;;;5.17;100.00;100115.16;5054723;28;20029;-78
2024/02/12 05:49:06;;;;;;;15.57;5.53;;;;;;;5.11;100.00;100116.47;5054278;28;20028;-78
2024/02/12 05:51:34;;;;;;;10.88;5.18;;;;;;;5.06;100.00;100113.38;5054976;28;20110;-78
2024/02/12 05:54:01;;;;;;;18.38;5.05;;;;;;;5.01;100.00;100115.50;5054271;28;20537;-79
2024/02/12 05:56:27;;;;;;;15.02;5.25;;;;;;;4.91;100.00;100106.66;5054682;28;20029;-78
2024/02/12 05:58:53;;;;;;;14.63;5.57;;;;;;;4.84;100.00;100114.22;5054422;28;20034;-77
2024/02/12 06:01:18;;;;;;;15.82;5.68;;;;;;;4.81;100.00;100117.09;5054843;28;20035;-78
2024/02/12 06:03:44;;;;;;;17.58;5.82;;;;;;;4.77;100.00;100120.91;5052905;28;20128;-77
2024/02/12 06:06:09;;;;;;;16.80;5.47;;;;;;;4.69;100.00;100126.78;5053030;28;20087;-78
2024/02/12 06:08:35;;;;;;;19.48;6.28;;;;;;;4.63;100.00;100124.63;5054637;28;20025;-78
2024/02/12 06:11:00;;;;;;;9.40;5.43;;;;;;;4.56;100.00;100128.69;5053155;28;20086;-77
2024/02/12 06:13:26;;;;;;;11.68;5.18;;;;;;;4.50;100.00;100134.44;5054224;28;20070;-77
2024/02/12 06:15:51;;;;;;;14.52;5.47;;;;;;;4.40;100.00;100136.91;5054112;28;20080;-78
2024/02/12 06:18:16;;;;;;;17.13;6.00;;;;;;;4.31;100.00;100135.81;5053926;28;20467;-78
2024/02/12 06:20:42;;;;;;;14.00;5.82;;;;;;;4.26;100.00;100140.59;5051534;28;20480;-78
2024/02/12 06:23:07;;;;;;;11.48;5.70;;;;;;;4.22;100.00;100152.31;5052193;28;20041;-78
2024/02/12 06:25:33;;;;;;;15.05;6.22;;;;;;;4.21;100.00;100155.88;5052577;28;20037;-77
2024/02/12 06:27:59;;;;;;;18.48;6.55;;;;;;;4.22;100.00;100144.41;5052451;28;20037;-77
2024/02/12 06:30:24;;;;;;;13.25;6.03;;;;;;;4.21;100.00;100153.25;5054275;28;20033;-78
2024/02/12 06:32:49;;;;;;;12.15;5.70;;;;;;;4.15;100.00;100159.84;5054110;28;20147;-78
2024/02/12 06:35:16;;;;;;;15.43;5.70;;;;;;;4.12;100.00;100157.44;5052943;28;20048;-78
2024/02/12 06:37:46;;;;;;;24.45;6.43;;;;;;;4.17;100.00;100157.09;5052534;28;20060;-77
2024/02/12 06:40:12;;;;;;;17.95;6.28;;;;;;;4.24;100.00;100167.03;5052426;28;20033;-77
2024/02/12 06:42:38;;;;;;;17.63;5.97;;;;;;;4.24;100.00;100172.31;5053570;28;20025;-78
2024/02/12 06:45:03;;;;;;;12.32;6.00;;;;;;;4.19;100.00;100173.59;5053257;28;20044;-77
2024/02/12 06:47:29;;;;;;;14.90;6.00;;;;;;;4.13;100.00;100179.34;5053497;28;20064;-77
2024/02/12 06:49:55;;;;;;;15.52;7.00;;;;;;;4.17;100.00;100183.41;5051963;28;20138;-77
2024/02/12 06:52:20;;;;;;;14.05;6.00;;;;;;;4.14;100.00;100181.84;5053748;28;20033;-77
2024/02/12 06:54:47;;;;;;;15.88;5.97;;;;;;;4.08;100.00;100184.13;5053019;28;20493;-77
2024/02/12 06:57:14;;;;;;;15.20;6.57;;;;;;;3.97;100.00;100192.78;5053324;28;20033;-77
2024/02/12 06:59:40;;;;;;;15.40;6.43;;;;;;;3.87;100.00;100192.63;5053069;28;20036;-77
2024/02/12 07:02:05;;;;;;;13.05;5.85;;;;;;;3.75;100.00;100199.63;5053053;28;20025;-78
2024/02/12 07:04:32;;;;;;;23.15;7.07;;;;;;;3.68;100.00;100204.47;5053037;28;20473;-77
2024/02/12 07:06:57;;;;;;;12.98;6.90;;;;;;;3.62;100.00;100202.28;5052648;28;20116;-78
2024/02/12 07:09:24;;;;;;;19.40;6.18;;;;;;;3.57;100.00;100211.44;5052066;28;20124;-77
2024/02/12 07:11:50;;;;;;;13.23;5.18;;;;;;;3.50;100.00;100217.13;5052871;28;20037;-77
2024/02/12 07:14:16;;;;;;;10.98;5.85;;;;;;;3.50;100.00;100214.50;5052693;28;20028;-77
2024/02/12 07:16:42;;;;;;;17.17;6.53;;;;;;;3.45;100.00;100219.25;5052267;28;20226;-77
2024/02/12 07:19:07;;;;;;;16.70;6.03;;;;;;;3.42;100.00;100224.75;5052591;28;20044;-77
2024/02/12 07:21:32;;;;;;;11.43;6.22;;;;;;;3.41;100.00;100230.94;5052584;28;20183;-77
2024/02/12 07:23:58;;;;;;;10.40;5.55;;;;;;;3.40;100.00;100231.06;5052270;28;20131;-77
2024/02/12 07:26:26;;;;;;;20.17;6.15;;;;;;;3.37;100.00;100240.00;5052552;28;20474;-77
2024/02/12 07:28:51;;;;;;;13.70;6.03;;;;;;;3.32;100.00;100231.59;5052933;28;20032;-78
2024/02/12 07:31:17;;;;;;;12.55;6.15;;;;;;;3.33;100.00;100242.00;5052284;28;20036;-78
2024/02/12 07:33:42;;;;;;;14.18;5.72;;;;;;;3.34;100.00;100245.47;5051540;28;20056;-77
2024/02/12 07:36:09;;;;;;;16.95;6.65;;;;;;;3.37;100.00;100250.50;5052565;28;20040;-77
2024/02/12 07:38:34;;;;;;;13.75;6.80;;;;;;;3.43;100.00;100254.50;5051210;28;20064;-77
2024/02/12 07:41:00;;;;;;;21.73;6.75;;;;;;;3.48;100.00;100263.75;5052479;28;20029;-77
2024/02/12 07:43:28;;;;;;;16.25;6.45;;;;;;;3.56;100.00;100265.03;5052437;28;20521;-77
2024/02/12 07:45:54;;;;;;;15.70;6.40;;;;;;;3.65;100.00;100262.56;5052502;28;20029;-77
2024/02/12 07:48:20;;;;;;;21.13;6.45;;;;;;;3.74;100.00;100268.13;5053221;28;20055;-77
2024/02/12 07:50:45;;;;;;;17.90;6.30;;;;;;;3.82;100.00;100271.91;5052430;28;20044;-76
2024/02/12 07:53:11;;;;;;;14.85;6.55;;;;;;;3.88;100.00;100283.78;5052333;28;20049;-78
2024/02/12 07:55:36;;;;;;;20.70;7.43;;;;;;;4.02;100.00;100286.25;5052586;28;20033;-77
2024/02/12 07:58:02;;;;;;;17.30;7.15;;;;;;;4.19;100.00;100289.47;5052918;28;20029;-77
2024/02/12 08:00:28;;;;;;;19.98;7.05;;;;;;;4.43;100.00;100284.19;5052643;28;20120;-77
2024/02/12 08:02:54;;;;;;;22.13;6.95;;;;;;;4.67;100.00;100292.09;5052357;28;20433;-76
2024/02/12 08:05:21;;;;;;;16.50;6.28;;;;;;;4.89;100.00;100298.38;5052062;28;20407;-77
2024/02/12 08:07:46;;;;;;;21.88;5.90;;;;;;;5.05;100.00;100300.72;5052323;28;20159;-77
2024/02/12 08:10:13;;;;;;;17.55;5.53;;;;;;;5.20;100.00;100303.97;5052248;28;20123;-76
2024/02/12 08:12:40;;;;;;;17.25;5.60;;;;;;;5.31;100.00;100303.97;5051956;28;20037;-76
2024/02/12 08:15:06;;;;;;;14.10;5.95;;;;;;;5.37;100.00;100310.59;5052472;28;20029;-77
2024/02/12 08:17:32;;;;;;;12.85;5.22;;;;;;;5.41;100.00;100315.50;5034086;28;20032;-78
2024/02/12 08:19:57;;;;;;;14.85;5.10;;;;;;;5.40;100.00;100320.91;5052201;28;20041;-77
2024/02/12 08:22:23;;;;;;;20.75;6.05;;;;;;;5.44;100.00;100325.81;5051263;28;20390;-79
2024/02/12 08:24:51;;;;;;;12.38;4.88;;;;;;;5.55;100.00;100327.63;5034052;28;20459;-78
2024/02/12 08:27:17;;;;;;;12.05;4.40;;;;;;;5.71;100.00;100329.09;5051262;28;20447;-78
2024/02/12 08:29:42;;;;;;;12.07;4.82;;;;;;;5.81;100.00;100328.22;5051790;28;20033;-79
2024/02/12 08:32:08;;;;;;;9.43;3.85;;;;;;;5.86;100.00;100332.31;5051552;28;20032;-78
2024/02/12 08:34:36;;;;;;;11.45;4.05;;;;;;;5.87;100.00;100326.06;5051853;28;20124;-79
2024/02/12 08:37:02;;;;;;;16.52;4.50;;;;;;;6.03;100.00;100323.09;5051830;28;20045;-77
2024/02/12 08:39:28;;;;;;;18.73;4.38;;;;;;;6.29;100.00;100327.13;5051223;28;20029;-78
2024/02/12 08:41:53;;;;;;;8.50;4.25;;;;;;;6.58;100.00;100333.63;5051212;28;20071;-76
2024/02/12 08:44:19;;;;;;;13.20;3.72;;;;;;;6.77;100.00;100322.41;5052527;28;20110;-77
2024/02/12 08:46:44;;;;;;;8.27;3.35;;;;;;;6.86;100.00;100329.56;5055547;28;20116;-77
2024/02/12 08:49:10;;;;;;;8.35;3.45;;;;;;;7.00;100.00;100329.25;5055660;28;20439;-78
2024/02/12 08:51:35;;;;;;;6.75;3.10;;;;;;;7.14;100.00;100332.56;5055487;28;20032;-77
2024/02/12 08:54:01;;;;;;;12.45;3.28;;;;;;;7.15;100.00;100328.91;5056154;28;20037;-80
2024/02/12 08:56:28;;;;;;;11.38;3.08;;;;;;;7.18;100.00;100340.09;5055545;28;20595;-78
2024/02/12 08:58:55;;;;;;;11.30;3.30;;;;;;;7.11;100.00;100338.09;5055293;28;20078;-77
2024/02/12 09:01:21;;;;;;;13.43;3.75;;;;;;;7.03;100.00;100349.31;5055413;28;20053;-77
2024/02/12 09:03:47;;;;;;;9.35;2.90;;;;;;;6.99;100.00;100348.75;5055564;28;20601;-76
2024/02/12 09:06:13;;;;;;;9.63;3.03;;;;;;;7.09;100.00;100353.25;5055002;28;20083;-78
2024/02/12 09:08:42;;;;;;;10.23;2.90;;;;;;;7.16;100.00;100360.53;5056284;28;20053;-79
2024/02/12 09:11:08;;;;;;;9.27;3.00;;;;;;;7.25;100.00;100361.59;5055509;28;20112;-78
2024/02/12 09:13:43;;;;;;;8.48;2.75;;;;;;;7.42;100.00;100365.47;5054826;28;20029;-79
2024/02/12 09:16:09;;;;;;;15.82;3.38;;;;;;;7.86;100.00;100371.38;5054750;28;20537;-78
2024/02/12 09:18:35;;;;;;;14.45;3.17;;;;;;;8.09;100.00;100371.19;5054946;28;20091;-80
2024/02/12 09:21:01;;;;;;;12.13;3.20;;;;;;;8.21;100.00;100375.44;5055195;28;20083;-79
2024/02/12 09:23:27;;;;;;;8.00;2.72;;;;;;;8.21;100.00;100374.56;5054783;28;20025;-79
2024/02/12 09:25:59;;;;;;;6.65;2.70;;;;;;;8.22;100.00;100374.44;5054811;28;20488;-78
2024/02/12 09:28:26;;;;;;;16.65;2.85;;;;;;;8.19;100.00;100377.38;5054943;28;20048;-78
2024/02/12 09:30:54;;;;;;;8.93;2.67;;;;;;;8.10;100.00;100375.53;5054760;28;20032;-80
2024/02/12 09:33:19;;;;;;;11.77;3.17;;;;;;;8.12;100.00;100384.16;5053513;28;20063;-81
2024/02/12 09:35:44;;;;;;;5.50;2.60;;;;;;;8.07;100.00;100384.56;5054790;28;20063;-78
2024/02/12 09:38:10;;;;;;;8.50;2.17;;;;;;;8.07;100.00;100387.22;5054476;28;20489;-77
2024/02/12 09:40:36;;;;;;;10.10;2.88;;;;;;;8.05;100.00;100389.19;5054503;28;20521;-80
2024/02/12 09:43:01;;;;;;;11.52;2.75;;;;;;;8.08;100.00;100393.38;5054886;28;20033;-80
2024/02/12 09:45:30;;;;;;;10.20;2.63;;;;;;;8.03;100.00;100396.44;5054171;28;20055;-78
2024/02/12 09:48:00;;;;;;;9.55;2.70;;;;;;;8.02;100.00;100397.41;5054488;28;20037;-78
2024/02/12 09:50:29;;;;;;;11.98;2.50;;;;;;;7.95;100.00;100399.72;5053217;28;20028;-80
2024/02/12 09:52:58;;;;;;;10.70;2.40;;;;;;;7.82;100.00;100408.88;5054405;28;20033;-78
2024/02/12 09:55:25;;;;;;;12.77;2.50;;;;;;;7.85;100.00;100411.25;5054053;28;20120;-79
2024/02/12 09:57:52;;;;;;;10.27;2.67;;;;;;;7.90;100.00;100414.38;5054242;28;20033;-80
2024/02/12 10:00:22;;;;;;;9.30;2.45;;;;;;;8.03;100.00;100420.28;5053922;28;20029;-78
2024/02/12 10:02:53;;;;;;;9.93;2.35;;;;;;;8.11;100.00;100425.75;5053871;28;20032;-79
2024/02/12 10:05:20;;;;;;;14.52;2.45;;;;;;;8.26;100.00;100426.22;5053657;28;20025;-80
2024/02/12 10:07:46;;;;;;;6.25;2.22;;;;;;;8.40;100.00;100430.28;5054717;28;20029;-79
2024/02/12 10:10:12;;;;;;;9.48;2.17;;;;;;;8.42;100.00;100436.31;5054959;28;20060;-77
2024/02/12 10:12:37;;;;;;;9.70;2.45;;;;;;;8.44;100.00;100441.53;5054885;28;20082;-80
2024/02/12 10:15:04;;;;;;;6.78;2.00;;;;;;;8.50;100.00;100448.94;5053732;28;20108;-81
2024/02/12 10:17:30;;;;;;;8.32;2.25;;;;;;;8.88;100.00;100454.47;5053108;28;20043;-79
2024/02/12 10:19:55;;;;;;;8.13;2.30;;;;;;;9.25;100.00;100459.09;5054312;28;20029;-81
2024/02/12 10:22:23;;;;;;;10.50;2.75;;;;;;;9.58;100.00;100452.50;5054547;28;20064;-78
2024/02/12 10:24:49;;;;;;;7.22;2.05;;;;;;;9.80;100.00;100453.16;5054183;28;20033;-80
2024/02/12 10:27:15;;;;;;;9.80;2.60;;;;;;;9.76;100.00;100457.09;5054550;28;20059;-79
2024/02/12 10:29:40;;;;;;;5.60;2.50;;;;;;;9.45;100.00;100465.22;5055049;28;20040;-81
2024/02/12 10:32:07;;;;;;;12.35;2.65;;;;;;;9.49;100.00;100469.28;5055040;28;20033;-81
2024/02/12 10:34:37;;;;;;;6.78;2.05;;;;;;;9.43;100.00;100472.50;5054726;28;20036;-81
2024/02/12 10:37:05;;;;;;;12.93;3.03;;;;;;;9.45;100.00;100474.06;5054807;28;20116;-82
2024/02/12 10:39:30;;;;;;;9.73;2.30;;;;;;;9.29;100.00;100484.41;5053474;28;20040;-80
2024/02/12 10:42:03;;;;;;;12.32;2.17;;;;;;;9.18;100.00;100478.25;5053420;28;20029;-78
2024/02/12 10:44:31;;;;;;;10.20;2.25;;;;;;;9.63;100.00;100483.94;5055346;28;20037;-79
2024/02/12 10:46:57;;;;;;;12.35;2.33;;;;;;;10.33;100.00;100487.19;5054455;28;20025;-82
2024/02/12 10:49:24;;;;;;;7.15;2.35;;;;;;;10.75;100.00;100486.69;5054932;28;20040;-79
2024/02/12 10:51:54;;;;;;;9.73;2.38;;;;;;;10.41;100.00;100487.28;5054666;28;20029;-82
2024/02/12 10:54:22;;;;;;;10.93;2.10;;;;;;;9.88;100.00;100496.66;5055045;28;20036;-78
2024/02/12 10:56:49;;;;;;;9.57;2.30;;;;;;;9.73;100.00;100502.53;5054569;28;20125;-81
2024/02/12 10:59:14;;;;;;;9.85;2.35;;;;;;;9.78;100.00;100501.13;5054441;28;20577;-79
2024/02/12 11:01:40;;;;;;;4.95;2.10;;;;;;;9.82;100.00;100496.38;5053910;28;20033;-80
2024/02/12 11:04:09;;;;;;;12.30;2.35;;;;;;;9.58;100.00;100497.66;5054115;28;20037;-80
2024/02/12 11:06:41;;;;;;;13.88;2.80;;;;;;;9.30;100.00;100501.97;5052678;28;20033;-78
2024/02/12 11:09:09;;;;;;;11.45;2.22;;;;;;;8.96;100.00;100505.88;5054045;28;20025;-78
2024/02/12 11:11:43;;;;;;;11.95;2.20;;;;;;;8.59;100.00;100509.09;5054253;28;20040;-78
2024/02/12 11:14:13;;;;;;;11.18;2.10;;;;;;;8.24;100.00;100512.13;5052862;28;20071;-78
2024/02/12 11:16:40;;;;;;;12.13;2.15;;;;;;;8.22;100.00;100501.66;5054480;28;20032;-78
2024/02/12 11:19:14;;;;;;;14.27;2.47;;;;;;;9.00;100.00;100498.47;5054209;28;20036;-77
2024/02/12 11:21:39;;;;;;;10.50;2.30;;;;;;;9.90;100.00;100499.16;5054368;28;20467;-77
2024/02/12 11:24:10;;;;;;;6.53;1.92;;;;;;;10.36;100.00;100501.97;5053615;28;20108;-77
2024/02/12 11:26:35;;;;;;;16.53;2.63;;;;;;;10.46;100.00;100508.09;5053748;28;20025;-78
2024/02/12 11:29:05;;;;;;;11.32;2.00;;;;;;;10.30;100.00;100505.19;5054436;28;20086;-80
2024/02/12 11:31:34;;;;;;;9.25;2.55;;;;;;;9.94;100.00;100513.00;5054346;28;20033;-81